Havana, Illinois
Current Conditions -  °F | °C
As of 2:54 PM on Tuesday 25 Nov 2014 (Local Time) from KPIA Reporting Station
Broken Clouds Broken Clouds  
Wind Chill: 25°   Ceiling: 1900
Heat Index: 31°   Visibility: 10mi
Dew Point: 20°   Wind: 6mph
Humidity: 64%   Direction: NA
Pressure: 30.15"   Gusts: NA
Location:  40.3°N, 90.06°W
Report Text: KPIA 252054Z VRB05KT 10SM BKN019 M01/M07 A3015 RMK AO2 SLP219 T10061067 58005
Loading
Personal Weather Stations






























Interactive Weather Map New forecast layout! Learn more

10-Day Weather Forecast

Advertisements
Track Severe Weather on mobile